Time;durP1;ratioP1;P1;durP2;ratioP2;P2;SDS_P1;SDS_P2;PMS_P1;PMS_P2;Temp;Humidity;BMP_temperature;BMP_pressure;BME280_temperature;BME280_humidity;BME280_pressure;Samples;Min_cycle;Max_cycle;Signal;HPM_P1;HPM_P2
2021/12/22 00:00:18;;;;;;;26.53;16.13;;;-2.80;99.90;;;;;;5010924;28;20199;-43
2021/12/22 00:02:46;;;;;;;29.27;17.23;;;-2.80;99.90;;;;;;5027804;28;20196;-43
2021/12/22 00:05:16;;;;;;;30.73;16.80;;;-2.90;99.90;;;;;;5022592;28;20223;-44
2021/12/22 00:07:43;;;;;;;27.10;15.43;;;-2.90;99.90;;;;;;5030373;28;20199;-44
2021/12/22 00:10:11;;;;;;;21.73;15.47;;;-2.90;99.90;;;;;;5029828;28;20275;-44
2021/12/22 00:12:38;;;;;;;25.43;15.90;;;-2.80;99.90;;;;;;5026887;28;20207;-42
2021/12/22 00:15:06;;;;;;;30.27;16.00;;;-2.90;99.90;;;;;;5007265;28;20200;-45
2021/12/22 00:17:33;;;;;;;22.60;15.27;;;-2.90;99.90;;;;;;5027343;28;20207;-43
2021/12/22 00:20:00;;;;;;;24.73;15.00;;;-2.90;99.90;;;;;;5028506;28;20214;-43
2021/12/22 00:22:26;;;;;;;24.27;14.87;;;-2.90;99.90;;;;;;5023794;28;20223;-45
2021/12/22 00:24:53;;;;;;;20.57;14.63;;;-2.80;99.90;;;;;;5025004;28;20325;-43
2021/12/22 00:27:21;;;;;;;23.33;14.77;;;-2.80;99.90;;;;;;5031034;28;20215;-48
2021/12/22 00:29:50;;;;;;;24.73;14.10;;;-2.80;99.90;;;;;;5026548;28;20200;-43
2021/12/22 00:32:17;;;;;;;23.30;13.80;;;-2.90;99.90;;;;;;5022968;28;20351;-44
2021/12/22 00:34:47;;;;;;;25.90;14.87;;;-2.90;99.90;;;;;;5030728;28;20188;-43
2021/12/22 00:37:15;;;;;;;23.00;13.77;;;-2.90;99.90;;;;;;5030154;28;20668;-43
2021/12/22 00:39:43;;;;;;;22.53;13.57;;;-2.90;99.90;;;;;;5032269;28;20196;-44
2021/12/22 00:42:10;;;;;;;20.90;13.53;;;-2.90;99.90;;;;;;5027586;28;20720;-43
2021/12/22 00:44:39;;;;;;;25.97;14.60;;;-2.90;99.90;;;;;;5023054;28;20208;-41
2021/12/22 00:47:06;;;;;;;19.87;13.23;;;-3.00;99.90;;;;;;5021956;28;20200;-41
2021/12/22 00:49:32;;;;;;;23.40;13.97;;;-3.00;99.90;;;;;;5031565;28;20200;-42
2021/12/22 00:51:59;;;;;;;25.20;14.77;;;-3.00;99.90;;;;;;5032212;28;20220;-41
2021/12/22 00:54:26;;;;;;;26.33;14.50;;;-3.00;99.90;;;;;;5029952;28;20673;-42
2021/12/22 00:56:55;;;;;;;24.33;14.53;;;-3.00;99.90;;;;;;5024549;28;20188;-45
2021/12/22 00:59:22;;;;;;;18.47;13.00;;;-3.00;99.90;;;;;;5024398;28;20254;-43
2021/12/22 01:01:50;;;;;;;18.97;13.70;;;-3.00;99.90;;;;;;5013191;28;20234;-41
2021/12/22 01:04:18;;;;;;;22.37;13.80;;;-3.00;99.90;;;;;;5034592;28;20220;-42
2021/12/22 01:06:44;;;;;;;22.63;14.30;;;-3.00;99.90;;;;;;5023120;28;20275;-42
2021/12/22 01:09:11;;;;;;;22.40;12.70;;;-3.00;99.90;;;;;;5029864;28;20622;-42
2021/12/22 01:11:38;;;;;;;23.03;14.87;;;-3.00;99.90;;;;;;5029795;28;20887;-42
2021/12/22 01:14:05;;;;;;;21.13;13.30;;;-3.00;99.90;;;;;;5026793;28;20191;-41
2021/12/22 01:16:32;;;;;;;20.07;13.17;;;-3.10;99.90;;;;;;5021834;28;20286;-45
2021/12/22 01:19:04;;;;;;;25.97;14.27;;;-3.20;99.90;;;;;;5019305;28;20212;-42
2021/12/22 01:21:39;;;;;;;16.73;12.03;;;-3.20;99.90;;;;;;5031011;28;20790;-43
2021/12/22 01:24:15;;;;;;;21.80;12.53;;;-3.30;99.90;;;;;;5037173;28;20213;-42
2021/12/22 01:26:46;;;;;;;23.03;13.03;;;-3.30;99.90;;;;;;5029067;28;20195;-43
2021/12/22 01:29:14;;;;;;;18.50;12.37;;;-3.30;99.90;;;;;;5025558;28;20247;-41
2021/12/22 01:31:41;;;;;;;21.73;12.43;;;-3.40;99.90;;;;;;5021386;28;20220;-42
2021/12/22 01:34:10;;;;;;;23.63;13.93;;;-3.40;99.90;;;;;;5012940;28;20196;-41
2021/12/22 01:36:37;;;;;;;19.83;11.97;;;-3.40;99.90;;;;;;5024973;28;20950;-42
2021/12/22 01:39:05;;;;;;;17.37;12.67;;;-3.40;99.90;;;;;;5034284;28;20667;-41
2021/12/22 01:41:32;;;;;;;20.20;12.47;;;-3.40;99.90;;;;;;5024048;28;20224;-45
2021/12/22 01:43:58;;;;;;;21.90;12.77;;;-3.50;99.90;;;;;;5027378;28;20202;-41
2021/12/22 01:49:17;;;;;;;19.87;12.50;;;-3.50;99.90;;;;;;5026621;28;20223;-43
2021/12/22 01:51:49;;;;;;;22.10;13.07;;;-3.50;99.90;;;;;;5027701;28;20227;-43
2021/12/22 01:54:30;;;;;;;22.30;13.00;;;-3.50;99.90;;;;;;5027910;28;20192;-42
2021/12/22 01:57:01;;;;;;;21.40;12.20;;;-3.50;99.90;;;;;;5033506;28;20200;-42
2021/12/22 01:59:28;;;;;;;19.13;12.73;;;-3.50;99.90;;;;;;5024737;28;20595;-42
2021/12/22 02:01:58;;;;;;;17.17;11.87;;;-3.50;99.90;;;;;;5037168;28;20218;-44
2021/12/22 02:04:26;;;;;;;19.87;12.97;;;-3.50;99.90;;;;;;5022139;28;20605;-42
2021/12/22 02:06:53;;;;;;;21.83;12.70;;;-3.50;99.90;;;;;;5020703;28;20318;-41
2021/12/22 02:09:35;;;;;;;18.60;11.87;;;-3.60;99.90;;;;;;5030650;28;20566;-43
2021/12/22 02:12:02;;;;;;;17.43;11.07;;;-3.60;99.90;;;;;;5024737;28;20308;-47
2021/12/22 02:14:29;;;;;;;19.83;12.00;;;-3.60;99.90;;;;;;5021688;28;20645;-42
2021/12/22 02:16:56;;;;;;;20.87;11.73;;;-3.60;99.90;;;;;;5023738;28;20214;-43
2021/12/22 02:19:22;;;;;;;20.60;11.90;;;-3.60;99.90;;;;;;5022802;28;20337;-43
2021/12/22 02:21:55;;;;;;;18.27;10.93;;;-3.60;99.90;;;;;;5016950;28;20219;-42
2021/12/22 02:24:22;;;;;;;14.57;10.80;;;-3.60;99.90;;;;;;5031919;28;20219;-42
2021/12/22 02:26:53;;;;;;;19.20;11.33;;;-3.60;99.90;;;;;;5021807;28;20192;-42
2021/12/22 02:29:22;;;;;;;16.97;11.20;;;-3.60;99.90;;;;;;5023997;28;20513;-44
2021/12/22 02:32:02;;;;;;;17.03;11.20;;;-3.70;99.90;;;;;;5021591;28;20428;-44
2021/12/22 02:34:38;;;;;;;18.63;11.80;;;-3.70;99.90;;;;;;5021131;28;20200;-42
2021/12/22 02:37:11;;;;;;;19.47;10.97;;;-3.70;99.90;;;;;;5016268;28;20278;-42
2021/12/22 02:39:38;;;;;;;16.50;10.37;;;-3.70;99.90;;;;;;5026266;28;20261;-43
2021/12/22 02:42:09;;;;;;;20.90;11.40;;;-3.60;99.90;;;;;;5029664;28;20223;-42
2021/12/22 02:44:36;;;;;;;17.43;10.63;;;-3.60;99.90;;;;;;5019351;28;20949;-43
2021/12/22 02:47:16;;;;;;;17.90;10.40;;;-3.60;99.90;;;;;;5033429;28;20580;-42
2021/12/22 02:49:42;;;;;;;20.77;11.33;;;-3.70;99.90;;;;;;5022602;28;20200;-42
2021/12/22 02:52:10;;;;;;;15.77;9.97;;;-3.70;99.90;;;;;;5012605;28;20897;-42
2021/12/22 02:54:43;;;;;;;17.67;10.73;;;-3.70;99.90;;;;;;5022760;28;20191;-43
2021/12/22 02:57:21;;;;;;;15.50;10.60;;;-3.70;99.90;;;;;;5024693;28;20599;-45
2021/12/22 03:00:04;;;;;;;16.73;10.40;;;-3.80;99.90;;;;;;5021193;28;20187;-42
2021/12/22 03:02:38;;;;;;;16.20;10.13;;;-3.70;99.90;;;;;;5024588;28;20227;-45
2021/12/22 03:05:05;;;;;;;13.97;9.53;;;-3.80;99.90;;;;;;5023543;28;20711;-42
2021/12/22 03:07:33;;;;;;;14.40;9.67;;;-3.80;99.90;;;;;;5014773;28;20566;-42
2021/12/22 03:10:05;;;;;;;14.17;9.07;;;-3.70;99.90;;;;;;5035529;28;20199;-43
2021/12/22 03:12:35;;;;;;;15.97;9.53;;;-3.70;99.90;;;;;;5020038;28;20220;-43
2021/12/22 03:15:02;;;;;;;14.40;9.20;;;-3.70;99.90;;;;;;5023613;28;20221;-44
2021/12/22 03:17:29;;;;;;;16.60;9.40;;;-3.70;99.90;;;;;;5020434;28;20257;-43
2021/12/22 03:19:56;;;;;;;15.47;9.33;;;-3.70;99.90;;;;;;5022783;28;20214;-43
2021/12/22 03:22:23;;;;;;;17.93;9.37;;;-3.70;99.90;;;;;;5016310;28;20271;-42
2021/12/22 03:24:52;;;;;;;14.63;9.90;;;-3.70;99.90;;;;;;5021667;28;20206;-42
2021/12/22 03:27:19;;;;;;;13.83;9.10;;;-3.70;99.90;;;;;;5028297;28;20208;-44
2021/12/22 03:29:46;;;;;;;14.63;9.13;;;-3.70;99.90;;;;;;5026593;28;20190;-43
2021/12/22 03:32:13;;;;;;;14.83;8.57;;;-3.70;99.90;;;;;;5028655;28;20227;-42
2021/12/22 03:34:41;;;;;;;11.20;8.27;;;-3.80;99.90;;;;;;5022030;28;20923;-43
2021/12/22 03:37:09;;;;;;;14.03;8.73;;;-3.80;99.90;;;;;;5038383;28;20199;-45
2021/12/22 03:39:36;;;;;;;12.43;8.80;;;-3.80;99.90;;;;;;5012948;28;20292;-42
2021/12/22 03:42:07;;;;;;;14.93;9.23;;;-3.80;99.90;;;;;;5034574;28;20218;-42
2021/12/22 03:44:33;;;;;;;15.87;7.87;;;-3.80;99.90;;;;;;5023555;28;20196;-43
2021/12/22 03:47:00;;;;;;;12.47;8.00;;;-3.80;99.90;;;;;;5027163;28;20210;-42
2021/12/22 03:49:28;;;;;;;14.53;8.30;;;-3.80;99.90;;;;;;5024941;28;20210;-42
2021/12/22 03:51:54;;;;;;;16.83;8.70;;;-3.80;99.90;;;;;;5026662;28;20216;-42
2021/12/22 03:54:21;;;;;;;10.33;8.17;;;-3.80;99.90;;;;;;5019860;28;20215;-42
2021/12/22 03:56:49;;;;;;;13.60;7.83;;;-3.80;99.90;;;;;;5029895;28;20206;-44
2021/12/22 03:59:18;;;;;;;13.93;8.47;;;-3.80;99.90;;;;;;5026608;28;20262;-44
2021/12/22 04:01:46;;;;;;;13.57;8.20;;;-3.90;99.90;;;;;;5032842;28;20302;-42
2021/12/22 04:04:15;;;;;;;13.93;8.40;;;-3.90;99.90;;;;;;5038128;28;20199;-41
2021/12/22 04:06:44;;;;;;;10.83;8.03;;;-3.90;99.90;;;;;;5023036;28;20223;-44
2021/12/22 04:09:11;;;;;;;13.70;8.30;;;-3.90;99.90;;;;;;5015555;28;20200;-43
2021/12/22 04:11:38;;;;;;;14.67;8.67;;;-4.00;99.90;;;;;;5032101;28;20216;-41
2021/12/22 04:14:05;;;;;;;12.27;8.00;;;-3.90;99.90;;;;;;5029427;28;20204;-41
2021/12/22 04:16:33;;;;;;;13.27;8.17;;;-4.00;99.90;;;;;;5022995;28;20196;-46
2021/12/22 04:19:00;;;;;;;11.00;8.63;;;-4.00;99.90;;;;;;5026486;28;20218;-41
2021/12/22 04:21:27;;;;;;;14.13;8.27;;;-4.00;99.90;;;;;;5024176;28;20230;-46
2021/12/22 04:23:53;;;;;;;11.80;7.67;;;-4.00;99.90;;;;;;5025499;28;20191;-46
2021/12/22 04:26:20;;;;;;;12.03;7.53;;;-4.00;99.90;;;;;;5022914;28;20230;-44
2021/12/22 04:28:47;;;;;;;11.40;7.77;;;-4.00;99.90;;;;;;5027877;28;20191;-43
2021/12/22 04:31:13;;;;;;;11.83;7.70;;;-4.00;99.90;;;;;;5029301;28;20789;-42
2021/12/22 04:33:41;;;;;;;11.87;8.37;;;-4.00;99.90;;;;;;5028395;28;20871;-43
2021/12/22 04:36:08;;;;;;;10.30;7.03;;;-4.00;99.90;;;;;;5029318;28;20580;-41
2021/12/22 04:38:35;;;;;;;13.13;8.07;;;-4.10;99.90;;;;;;5022650;28;20200;-42
2021/12/22 04:41:02;;;;;;;11.47;7.23;;;-4.10;99.90;;;;;;5016015;28;20727;-43
2021/12/22 04:43:28;;;;;;;12.83;8.47;;;-4.10;99.90;;;;;;5026388;28;20207;-41
2021/12/22 04:45:55;;;;;;;11.63;6.87;;;-4.10;99.90;;;;;;5026283;28;20238;-44
2021/12/22 04:48:21;;;;;;;11.63;8.07;;;-4.10;99.90;;;;;;5025981;28;20207;-43
2021/12/22 04:50:50;;;;;;;13.70;8.03;;;-4.10;99.90;;;;;;5030193;28;20863;-42
2021/12/22 04:53:21;;;;;;;11.27;7.17;;;-4.20;99.90;;;;;;5024721;28;20290;-45
2021/12/22 04:55:48;;;;;;;11.57;6.83;;;-4.20;99.90;;;;;;5011239;28;20286;-45
2021/12/22 04:58:15;;;;;;;11.37;7.47;;;-4.20;99.90;;;;;;5033446;28;20195;-41
2021/12/22 05:00:41;;;;;;;10.40;7.37;;;-4.20;99.90;;;;;;5024871;28;20227;-42
2021/12/22 05:03:08;;;;;;;13.13;8.20;;;-4.20;99.90;;;;;;5028635;28;20211;-43
2021/12/22 05:05:35;;;;;;;11.10;7.40;;;-4.20;99.90;;;;;;5027304;28;20223;-47
2021/12/22 05:08:03;;;;;;;15.70;8.63;;;-4.20;99.90;;;;;;5021509;28;20202;-46
2021/12/22 05:10:30;;;;;;;11.43;7.10;;;-4.20;99.90;;;;;;5025739;28;20221;-47
2021/12/22 05:12:57;;;;;;;13.83;8.03;;;-4.30;99.90;;;;;;5017517;28;20819;-43
2021/12/22 05:15:28;;;;;;;9.63;7.37;;;-4.30;99.90;;;;;;5025609;28;20716;-42
2021/12/22 05:18:21;;;;;;;14.17;8.17;;;-4.30;99.90;;;;;;5022051;28;20200;-43
2021/12/22 05:20:48;;;;;;;10.73;7.00;;;-4.30;99.90;;;;;;5036059;28;20223;-44
2021/12/22 05:23:16;;;;;;;11.47;7.13;;;-4.30;99.90;;;;;;5023926;28;20195;-42
2021/12/22 05:25:43;;;;;;;12.73;7.60;;;-4.30;99.90;;;;;;5024036;28;20215;-45
2021/12/22 05:28:10;;;;;;;13.40;7.47;;;-4.40;99.90;;;;;;5020876;28;20202;-42
2021/12/22 05:30:37;;;;;;;12.47;7.40;;;-4.40;99.90;;;;;;5032884;28;20238;-48
2021/12/22 05:33:03;;;;;;;12.80;8.07;;;-4.40;99.90;;;;;;5036797;28;20269;-44
2021/12/22 05:35:30;;;;;;;11.03;7.37;;;-4.40;99.90;;;;;;5033946;28;20564;-45
2021/12/22 05:37:57;;;;;;;11.60;7.17;;;-4.40;99.90;;;;;;5021257;28;20793;-47
2021/12/22 05:40:27;;;;;;;17.10;7.67;;;-4.40;99.90;;;;;;5029498;28;20204;-46
2021/12/22 05:42:55;;;;;;;11.60;8.07;;;-4.40;99.90;;;;;;5015237;28;20599;-48
2021/12/22 05:45:22;;;;;;;15.13;8.20;;;-4.40;99.90;;;;;;5028429;28;20204;-42
2021/12/22 05:47:50;;;;;;;9.23;6.63;;;-4.50;99.90;;;;;;5022120;28;20663;-44
2021/12/22 05:50:17;;;;;;;8.70;6.93;;;-4.40;99.90;;;;;;5023958;28;20226;-49
2021/12/22 05:52:43;;;;;;;11.03;7.20;;;-4.50;99.90;;;;;;5021761;28;20206;-43
2021/12/22 05:55:10;;;;;;;12.90;7.63;;;-4.50;99.90;;;;;;5024624;28;20700;-42
2021/12/22 05:57:38;;;;;;;12.90;8.23;;;-4.50;99.90;;;;;;5026510;28;20209;-45
2021/12/22 06:00:06;;;;;;;12.33;7.80;;;-4.50;99.90;;;;;;5035134;28;20201;-43
2021/12/22 06:02:38;;;;;;;12.73;7.30;;;-4.50;99.90;;;;;;5030844;28;20207;-44
2021/12/22 06:05:06;;;;;;;12.93;7.83;;;-4.50;99.90;;;;;;5032066;28;20215;-45
2021/12/22 06:07:33;;;;;;;11.20;7.40;;;-4.50;99.90;;;;;;5036774;28;20211;-45
2021/12/22 06:09:59;;;;;;;13.23;7.60;;;-4.50;99.90;;;;;;5028466;28;20217;-46
2021/12/22 06:12:26;;;;;;;12.17;7.60;;;-4.50;99.90;;;;;;5016323;28;20231;-44
2021/12/22 06:14:54;;;;;;;11.53;7.43;;;-4.50;99.90;;;;;;5020660;28;20215;-45
2021/12/22 06:17:20;;;;;;;11.60;6.77;;;-4.50;99.90;;;;;;5027875;28;20226;-44
2021/12/22 06:19:47;;;;;;;12.07;7.20;;;-4.50;99.90;;;;;;5046397;28;20209;-44
2021/12/22 06:22:13;;;;;;;12.50;7.50;;;-4.50;99.90;;;;;;5020052;28;20550;-51
2021/12/22 06:24:40;;;;;;;11.87;7.40;;;-4.60;99.90;;;;;;5035266;28;20211;-47
2021/12/22 06:27:07;;;;;;;13.50;7.90;;;-4.60;99.90;;;;;;5029179;28;20213;-44
2021/12/22 06:29:34;;;;;;;12.73;7.63;;;-4.60;99.90;;;;;;5018031;28;20217;-44
2021/12/22 06:32:02;;;;;;;12.57;8.10;;;-4.60;99.90;;;;;;5026038;28;20221;-44
2021/12/22 06:34:28;;;;;;;12.40;8.10;;;-4.60;99.90;;;;;;5032322;28;20473;-44
2021/12/22 06:36:55;;;;;;;10.53;7.27;;;-4.60;99.90;;;;;;5036742;28;20320;-45
2021/12/22 06:39:22;;;;;;;12.53;7.83;;;-4.60;99.90;;;;;;5020791;28;20198;-47
2021/12/22 06:41:49;;;;;;;13.73;7.73;;;-4.60;99.90;;;;;;5024428;28;20219;-45
2021/12/22 06:44:17;;;;;;;15.97;8.33;;;-4.60;99.90;;;;;;5017053;28;20211;-46
2021/12/22 06:46:44;;;;;;;15.13;8.00;;;-4.60;99.90;;;;;;5036194;28;20214;-46
2021/12/22 06:49:12;;;;;;;11.33;7.17;;;-4.60;99.90;;;;;;5027551;28;20613;-44
2021/12/22 06:51:39;;;;;;;11.77;7.97;;;-4.60;99.90;;;;;;5032874;28;20242;-45
2021/12/22 06:54:06;;;;;;;12.20;7.50;;;-4.60;99.90;;;;;;5028443;28;20226;-46
2021/12/22 06:56:32;;;;;;;13.33;8.03;;;-4.60;99.90;;;;;;5026908;28;20199;-45
2021/12/22 06:59:01;;;;;;;11.97;7.37;;;-4.60;99.90;;;;;;5035297;28;20205;-43
2021/12/22 07:01:27;;;;;;;16.40;7.47;;;-4.60;99.90;;;;;;5018303;28;20774;-42
2021/12/22 07:03:54;;;;;;;15.53;7.77;;;-4.60;99.90;;;;;;5030061;28;20205;-45
2021/12/22 07:06:22;;;;;;;11.97;7.53;;;-4.70;99.90;;;;;;5023940;28;21042;-42
2021/12/22 07:08:49;;;;;;;13.93;8.03;;;-4.70;99.90;;;;;;5032852;28;20195;-43
2021/12/22 07:11:16;;;;;;;13.27;7.47;;;-4.70;99.90;;;;;;5019424;28;20222;-43
2021/12/22 07:13:42;;;;;;;14.87;8.23;;;-4.70;99.90;;;;;;5036724;28;20207;-42
2021/12/22 07:16:09;;;;;;;15.43;8.47;;;-4.70;99.90;;;;;;5010514;28;20208;-44
2021/12/22 07:18:36;;;;;;;14.67;7.90;;;-4.70;99.90;;;;;;5026897;28;20204;-41
2021/12/22 07:21:04;;;;;;;15.30;8.13;;;-4.70;99.90;;;;;;5023109;28;20228;-42
2021/12/22 07:23:32;;;;;;;11.67;7.53;;;-4.70;99.90;;;;;;5017606;28;20698;-44
2021/12/22 07:25:58;;;;;;;15.40;8.13;;;-4.70;99.90;;;;;;5021678;28;20202;-43
2021/12/22 07:28:25;;;;;;;17.10;9.07;;;-4.70;99.90;;;;;;5024348;28;20219;-42
2021/12/22 07:30:52;;;;;;;14.50;8.20;;;-4.70;99.90;;;;;;5008631;28;20232;-43
2021/12/22 07:33:18;;;;;;;14.83;8.53;;;-4.70;99.90;;;;;;5028433;28;20201;-44
2021/12/22 07:35:59;;;;;;;19.87;8.70;;;-4.70;99.90;;;;;;5022090;28;20213;-42
2021/12/22 07:38:36;;;;;;;15.70;8.47;;;-4.70;99.90;;;;;;5028769;28;20225;-42
2021/12/22 07:41:04;;;;;;;17.33;8.70;;;-4.70;99.90;;;;;;5026736;28;20213;-42
2021/12/22 07:43:31;;;;;;;19.07;8.63;;;-4.70;99.90;;;;;;5030100;28;21006;-44
2021/12/22 07:45:58;;;;;;;19.13;9.77;;;-4.70;99.90;;;;;;5028412;28;20875;-44
2021/12/22 07:48:25;;;;;;;23.13;11.27;;;-4.70;99.90;;;;;;5017628;28;20211;-44
2021/12/22 07:50:52;;;;;;;23.53;10.37;;;-4.70;99.90;;;;;;5025387;28;20224;-42
2021/12/22 07:53:19;;;;;;;22.20;11.33;;;-4.80;99.90;;;;;;5041656;28;20205;-41
2021/12/22 07:55:48;;;;;;;25.23;11.63;;;-4.70;99.90;;;;;;5032003;28;20567;-41
2021/12/22 07:58:15;;;;;;;25.20;11.13;;;-4.70;99.90;;;;;;5028289;28;20586;-42
2021/12/22 08:00:42;;;;;;;23.53;11.30;;;-4.70;99.90;;;;;;5021388;28;20238;-42
2021/12/22 08:03:11;;;;;;;29.67;11.63;;;-4.70;99.90;;;;;;5016895;28;20202;-42
2021/12/22 08:05:38;;;;;;;24.80;10.73;;;-4.70;99.90;;;;;;5025495;28;20215;-42
2021/12/22 08:08:05;;;;;;;21.77;11.50;;;-4.70;99.90;;;;;;5028702;28;20216;-42
2021/12/22 08:10:32;;;;;;;25.60;11.77;;;-4.70;99.90;;;;;;5025326;28;20226;-44
2021/12/22 08:13:00;;;;;;;30.03;12.40;;;-4.60;99.90;;;;;;5024318;28;20203;-44
2021/12/22 08:15:27;;;;;;;30.70;13.43;;;-4.60;99.90;;;;;;5022934;28;20212;-45
2021/12/22 08:17:54;;;;;;;28.10;12.57;;;-4.60;99.90;;;;;;5017885;28;20233;-45
2021/12/22 08:20:21;;;;;;;42.33;17.47;;;-4.50;99.90;;;;;;5021783;28;20221;-45
2021/12/22 08:22:48;;;;;;;86.50;28.67;;;-4.50;99.90;;;;;;5024246;28;20421;-45
2021/12/22 08:25:15;;;;;;;168.10;44.23;;;-4.50;99.90;;;;;;5038608;28;20202;-42
2021/12/22 08:27:42;;;;;;;159.57;47.97;;;-4.50;99.90;;;;;;5025086;28;20583;-44
2021/12/22 08:30:11;;;;;;;151.83;48.13;;;-4.50;99.90;;;;;;5036222;28;20201;-44
2021/12/22 08:32:37;;;;;;;145.63;49.03;;;-4.40;99.90;;;;;;5027375;28;20216;-42
2021/12/22 08:35:07;;;;;;;154.17;52.73;;;-4.40;99.90;;;;;;5029288;28;20225;-43
2021/12/22 08:40:21;;;;;;;135.27;47.50;;;-4.30;99.90;;;;;;5044210;28;20586;-39
2021/12/22 08:42:48;;;;;;;137.20;46.47;;;-4.20;99.90;;;;;;5020594;28;20193;-42
2021/12/22 08:45:17;;;;;;;91.70;36.47;;;-4.20;99.90;;;;;;5036666;28;20201;-41
2021/12/22 08:47:45;;;;;;;108.33;40.67;;;-4.10;99.90;;;;;;5026492;28;20234;-41
2021/12/22 08:50:14;;;;;;;67.20;28.47;;;-4.10;99.90;;;;;;5021051;28;20211;-41
2021/12/22 08:52:41;;;;;;;52.83;24.20;;;-4.10;99.90;;;;;;5026898;28;20202;-40
2021/12/22 08:55:09;;;;;;;67.60;26.17;;;-4.00;99.90;;;;;;5031865;28;20224;-42
2021/12/22 08:57:36;;;;;;;60.23;23.63;;;-4.00;99.90;;;;;;5021178;28;20560;-41
2021/12/22 09:00:05;;;;;;;40.27;17.53;;;-3.90;99.90;;;;;;5031626;28;20801;-41
2021/12/22 09:02:33;;;;;;;31.40;14.87;;;-3.90;99.90;;;;;;5035434;28;20226;-40
2021/12/22 09:05:00;;;;;;;30.60;13.63;;;-3.80;99.90;;;;;;5017542;28;20194;-42
2021/12/22 09:07:26;;;;;;;25.80;11.23;;;-3.80;99.90;;;;;;5034675;28;20226;-43
2021/12/22 09:09:53;;;;;;;23.63;10.97;;;-3.80;99.90;;;;;;5027540;28;20206;-46
2021/12/22 09:12:19;;;;;;;23.50;10.83;;;-3.80;99.90;;;;;;5033347;28;20245;-40
2021/12/22 09:14:46;;;;;;;19.90;10.00;;;-3.70;99.90;;;;;;5030130;28;20198;-44
2021/12/22 09:17:12;;;;;;;25.40;11.67;;;-3.70;99.90;;;;;;5032650;28;20572;-42
2021/12/22 09:19:41;;;;;;;21.00;10.97;;;-3.60;99.90;;;;;;5015975;28;20219;-41
2021/12/22 09:22:07;;;;;;;24.67;10.37;;;-3.60;99.90;;;;;;5034313;28;20277;-42
2021/12/22 09:24:34;;;;;;;21.53;10.87;;;-3.50;99.90;;;;;;5025852;28;20647;-42
2021/12/22 09:27:01;;;;;;;22.90;10.13;;;-3.50;99.90;;;;;;5037013;28;20214;-42
2021/12/22 09:29:29;;;;;;;23.33;10.40;;;-3.40;99.90;;;;;;5024817;28;20680;-41
2021/12/22 09:31:57;;;;;;;30.27;12.13;;;-3.40;99.90;;;;;;5035487;28;20984;-40
2021/12/22 09:34:24;;;;;;;24.30;11.63;;;-3.30;99.90;;;;;;5029075;28;20592;-40
2021/12/22 09:36:52;;;;;;;31.30;11.90;;;-3.20;99.90;;;;;;5014909;28;20190;-40
2021/12/22 09:39:18;;;;;;;25.53;12.80;;;-3.20;99.90;;;;;;5040884;28;20206;-41
2021/12/22 09:41:46;;;;;;;31.13;13.70;;;-3.20;99.90;;;;;;5018630;28;21018;-43
2021/12/22 09:44:13;;;;;;;36.27;13.23;;;-3.10;99.90;;;;;;5026387;28;20210;-43
2021/12/22 09:46:41;;;;;;;32.13;15.07;;;-3.10;99.90;;;;;;5021482;28;20222;-43
2021/12/22 09:49:20;;;;;;;38.93;15.10;;;-3.10;99.90;;;;;;5026487;28;20607;-43
2021/12/22 09:54:33;;;;;;;38.60;16.73;;;-3.10;99.90;;;;;;5026722;28;20506;-42
2021/12/22 09:57:00;;;;;;;36.00;15.43;;;-3.20;99.90;;;;;;5021598;28;20203;-41
2021/12/22 09:59:27;;;;;;;30.67;14.60;;;-3.10;99.90;;;;;;5024298;28;20283;-42
2021/12/22 10:01:54;;;;;;;41.03;15.93;;;-3.10;99.90;;;;;;5028247;28;20210;-41
2021/12/22 10:04:20;;;;;;;67.20;18.30;;;-3.10;99.90;;;;;;5033561;28;20670;-45
2021/12/22 10:06:47;;;;;;;38.37;15.43;;;-3.10;99.90;;;;;;5018644;28;20191;-42
2021/12/22 10:09:14;;;;;;;31.83;14.13;;;-3.10;99.90;;;;;;5030750;28;20571;-43
2021/12/22 10:11:45;;;;;;;27.50;12.27;;;-3.10;99.90;;;;;;5017605;28;20591;-41
2021/12/22 10:14:24;;;;;;;31.37;13.43;;;-3.00;99.90;;;;;;5024853;28;20204;-45
2021/12/22 10:16:53;;;;;;;36.47;13.57;;;-3.00;99.90;;;;;;5020959;28;20982;-42
2021/12/22 10:19:24;;;;;;;35.07;14.23;;;-3.00;99.90;;;;;;5034471;28;20699;-43
2021/12/22 10:21:53;;;;;;;31.57;14.00;;;-2.90;99.90;;;;;;5011291;28;20223;-40
2021/12/22 10:24:32;;;;;;;27.40;13.33;;;-2.90;99.90;;;;;;5032779;28;20218;-43
2021/12/22 10:27:04;;;;;;;41.07;16.13;;;-2.90;99.90;;;;;;5018332;28;20235;-42
2021/12/22 10:29:32;;;;;;;30.30;14.57;;;-2.80;99.90;;;;;;5041338;28;20209;-41
2021/12/22 10:32:07;;;;;;;35.63;16.73;;;-2.80;99.90;;;;;;5032963;28;20320;-40
2021/12/22 10:34:34;;;;;;;31.00;14.07;;;-2.80;99.90;;;;;;5025455;28;20204;-41
2021/12/22 10:37:01;;;;;;;33.70;14.30;;;-2.80;99.90;;;;;;5010576;28;20211;-43
2021/12/22 10:39:30;;;;;;;31.47;14.60;;;-2.70;99.90;;;;;;5026775;28;20204;-40
2021/12/22 10:42:05;;;;;;;35.80;14.60;;;-2.70;99.90;;;;;;5017632;28;20234;-41
2021/12/22 10:44:36;;;;;;;28.97;13.47;;;-2.60;99.90;;;;;;5040805;28;20202;-43
2021/12/22 10:47:20;;;;;;;31.90;14.13;;;-2.60;99.90;;;;;;5040157;28;20220;-41
2021/12/22 10:49:58;;;;;;;31.63;12.97;;;-2.50;99.90;;;;;;5024347;28;20249;-43
2021/12/22 10:52:26;;;;;;;87.73;23.73;;;-2.60;99.90;;;;;;5033747;28;20223;-40
2021/12/22 10:55:06;;;;;;;70.93;21.83;;;-2.50;99.90;;;;;;5015609;28;20226;-40
2021/12/22 10:57:37;;;;;;;51.90;19.13;;;-2.50;99.90;;;;;;5018937;28;20187;-41
2021/12/22 11:00:14;;;;;;;45.33;16.10;;;-2.50;99.90;;;;;;5032357;28;20196;-41
2021/12/22 11:02:49;;;;;;;46.67;15.20;;;-2.50;99.90;;;;;;5023349;28;20338;-40
2021/12/22 11:05:27;;;;;;;39.57;14.70;;;-2.40;99.90;;;;;;5021729;28;20227;-41
2021/12/22 11:07:53;;;;;;;35.50;15.13;;;-2.30;99.90;;;;;;5026966;28;20226;-45
2021/12/22 11:10:25;;;;;;;63.57;21.27;;;-2.30;99.90;;;;;;5013178;28;20203;-41
2021/12/22 11:13:03;;;;;;;61.27;19.63;;;-2.40;99.90;;;;;;5031946;28;20344;-41
2021/12/22 11:15:30;;;;;;;39.93;15.93;;;-2.30;99.90;;;;;;5019933;28;20214;-42
2021/12/22 11:17:57;;;;;;;37.20;15.97;;;-2.30;99.90;;;;;;5023398;28;20192;-42
2021/12/22 11:20:25;;;;;;;46.50;17.37;;;-2.30;99.90;;;;;;5020716;28;20223;-41
2021/12/22 11:22:57;;;;;;;34.43;16.00;;;-2.20;99.90;;;;;;5022453;28;20680;-41
2021/12/22 11:25:25;;;;;;;40.37;15.50;;;-2.30;99.90;;;;;;5008451;28;20231;-42
2021/12/22 11:27:52;;;;;;;34.57;15.37;;;-2.20;99.90;;;;;;5030980;28;20274;-42
2021/12/22 11:30:21;;;;;;;34.17;16.57;;;-2.20;99.90;;;;;;5018213;28;20595;-41
2021/12/22 11:32:48;;;;;;;40.63;16.93;;;-2.20;99.90;;;;;;5041053;28;20203;-42
2021/12/22 11:35:16;;;;;;;35.90;16.50;;;-2.20;99.90;;;;;;5041461;28;20207;-43
2021/12/22 11:37:44;;;;;;;36.17;17.67;;;-2.10;99.90;;;;;;5028101;28;20188;-43
2021/12/22 11:40:13;;;;;;;33.33;14.90;;;-2.00;99.90;;;;;;5029045;28;20211;-41
2021/12/22 11:42:40;;;;;;;39.90;16.37;;;-2.00;99.90;;;;;;5020497;28;20199;-42
2021/12/22 11:45:10;;;;;;;45.87;17.87;;;-2.00;99.90;;;;;;5028781;28;20204;-40
2021/12/22 11:47:42;;;;;;;45.03;18.13;;;-1.90;99.90;;;;;;5017571;28;20247;-41
2021/12/22 11:50:17;;;;;;;38.97;16.97;;;-1.90;99.90;;;;;;5030850;28;20191;-41
2021/12/22 11:52:53;;;;;;;39.73;16.63;;;-1.90;99.90;;;;;;5029430;28;20287;-41
2021/12/22 11:55:22;;;;;;;39.73;17.57;;;-1.80;99.90;;;;;;5021035;28;20688;-44
2021/12/22 11:57:51;;;;;;;37.27;17.90;;;-1.80;99.90;;;;;;5015734;28;20234;-42
2021/12/22 12:00:24;;;;;;;36.70;16.73;;;-1.80;99.90;;;;;;5031183;28;20207;-42
2021/12/22 12:02:53;;;;;;;39.57;17.60;;;-1.80;99.90;;;;;;5024819;28;20199;-43
2021/12/22 12:05:22;;;;;;;38.33;16.87;;;-1.70;99.90;;;;;;5029970;28;20211;-40
2021/12/22 12:07:53;;;;;;;30.17;14.60;;;-1.70;99.90;;;;;;5034995;28;20222;-42
2021/12/22 12:10:41;;;;;;;39.10;16.20;;;-1.60;99.90;;;;;;5024441;28;20205;-40
2021/12/22 12:13:19;;;;;;;27.70;12.30;;;-1.60;99.90;;;;;;5019502;28;20289;-40
2021/12/22 12:22:34;;;;;;;50.33;17.33;;;-1.40;99.90;;;;;;5024293;28;20212;-40
2021/12/22 12:25:11;;;;;;;27.70;13.97;;;-1.50;99.90;;;;;;5032201;28;20254;-41
2021/12/22 12:28:13;;;;;;;40.57;14.90;;;-1.50;99.90;;;;;;5016315;28;23553;-42
2021/12/22 12:30:45;;;;;;;47.10;15.67;;;-1.50;99.90;;;;;;5035574;28;20219;-41
2021/12/22 12:33:20;;;;;;;49.93;17.87;;;-1.50;99.90;;;;;;5022111;28;20282;-39
2021/12/22 12:36:00;;;;;;;42.97;15.07;;;-1.50;99.90;;;;;;5025130;28;20199;-41
2021/12/22 12:38:30;;;;;;;44.03;15.07;;;-1.40;99.90;;;;;;5029731;28;20199;-41
2021/12/22 12:41:11;;;;;;;60.60;18.93;;;-1.40;99.90;;;;;;5030279;28;20230;-40
2021/12/22 12:43:56;;;;;;;31.83;13.47;;;-1.40;99.90;;;;;;5015892;28;20215;-40
2021/12/22 12:46:51;;;;;;;34.40;14.67;;;-1.40;99.90;;;;;;5026175;28;20215;-39
2021/12/22 12:49:33;;;;;;;39.73;14.23;;;-1.40;99.90;;;;;;5030616;28;20217;-40
2021/12/22 12:52:09;;;;;;;34.83;13.07;;;-1.50;99.90;;;;;;5045215;28;20215;-40
2021/12/22 12:54:46;;;;;;;25.60;12.87;;;-1.50;99.90;;;;;;5036540;28;20282;-42